createdAt,value
2019-01-18T00:01:10.355Z,79.37
2019-01-18T00:03:39.808Z,79.36
2019-01-18T00:06:08.993Z,79.37
2019-01-18T00:08:38.488Z,79.34
2019-01-18T00:11:08.011Z,79.30
2019-01-18T00:13:37.195Z,79.35
2019-01-18T00:16:06.395Z,79.33
2019-01-18T00:18:35.915Z,79.33
2019-01-18T00:21:05.126Z,79.39
2019-01-18T00:23:34.322Z,79.42
2019-01-18T00:26:03.814Z,79.36
2019-01-18T00:28:33.043Z,79.39
2019-01-18T00:31:02.239Z,79.37
2019-01-18T00:33:31.562Z,79.33
2019-01-18T00:36:00.757Z,79.31
2019-01-18T00:38:30.090Z,79.37
2019-01-18T00:40:59.611Z,79.35
2019-01-18T00:43:28.795Z,79.35
2019-01-18T00:46:00.261Z,79.39
2019-01-18T00:48:29.491Z,79.41
2019-01-18T00:50:58.678Z,79.40
2019-01-18T00:53:28.059Z,79.43
2019-01-18T00:55:57.296Z,79.45
2019-01-18T00:58:26.501Z,79.42
2019-01-18T01:00:56.064Z,79.43
2019-01-18T01:03:25.315Z,79.49
2019-01-18T01:05:54.510Z,79.49
2019-01-18T01:08:23.961Z,79.50
2019-01-18T01:10:53.218Z,79.53
2019-01-18T01:13:22.678Z,79.58
2019-01-18T01:15:52.065Z,79.56
2019-01-18T01:18:21.295Z,79.61
2019-01-18T01:20:50.602Z,79.60
2019-01-18T01:23:20.070Z,79.62
2019-01-18T01:25:49.415Z,79.61
2019-01-18T01:28:18.595Z,79.54
2019-01-18T01:30:47.887Z,79.58
2019-01-18T01:33:17.104Z,79.60
2019-01-18T01:35:46.283Z,79.64
2019-01-18T01:38:15.666Z,79.58
2019-01-18T01:40:45.064Z,79.59
2019-01-18T01:43:14.268Z,79.61
2019-01-18T01:45:43.585Z,79.66
2019-01-18T01:48:12.817Z,79.65
2019-01-18T01:50:42.016Z,79.64
2019-01-18T01:53:11.558Z,79.66
2019-01-18T01:55:40.820Z,79.68
2019-01-18T01:58:10.023Z,79.72
2019-01-18T02:00:39.465Z,79.71
2019-01-18T02:03:08.687Z,79.67
2019-01-18T02:05:37.866Z,79.74
2019-01-18T02:08:07.308Z,79.70
2019-01-18T02:10:36.623Z,79.68
2019-01-18T02:13:05.909Z,79.75
2019-01-18T02:15:35.377Z,79.73
2019-01-18T02:18:04.731Z,79.69
2019-01-18T02:20:33.932Z,79.70
2019-01-18T02:23:03.473Z,79.73
2019-01-18T02:25:32.720Z,79.68
2019-01-18T02:28:01.883Z,79.75
2019-01-18T02:30:31.159Z,79.85
2019-01-18T02:33:00.458Z,79.93
2019-01-18T02:35:29.657Z,79.89
2019-01-18T02:37:58.928Z,79.90
2019-01-18T02:40:28.136Z,79.83
2019-01-18T02:42:57.558Z,79.92
2019-01-18T02:45:27.074Z,79.94
2019-01-18T02:47:56.273Z,79.97
2019-01-18T02:50:25.467Z,80.02
2019-01-18T02:52:54.971Z,79.98
2019-01-18T02:55:28.857Z,80.02
2019-01-18T02:57:55.406Z,80.05
2019-01-18T03:00:25.058Z,80.03
2019-01-18T03:02:54.298Z,80.06
2019-01-18T03:05:26.087Z,80.02
2019-01-18T03:07:56.586Z,80.05
2019-01-18T03:10:28.767Z,80.11
2019-01-18T03:12:58.047Z,80.15
2019-01-18T03:15:27.228Z,80.21
2019-01-18T03:17:56.687Z,80.23
2019-01-18T03:20:25.888Z,80.26
2019-01-18T03:22:55.193Z,80.28
2019-01-18T03:25:29.087Z,80.27
2019-01-18T03:27:58.531Z,80.38
2019-01-18T03:30:27.742Z,80.32
2019-01-18T03:32:57.180Z,80.37
2019-01-18T03:35:26.674Z,80.43
2019-01-18T03:37:55.949Z,80.52
2019-01-18T03:40:27.738Z,80.61
2019-01-18T03:42:56.951Z,80.61
2019-01-18T03:45:26.284Z,80.61
2019-01-18T03:47:56.258Z,80.51
2019-01-18T03:50:27.585Z,80.26
2019-01-18T03:52:57.379Z,80.14
2019-01-18T03:55:26.620Z,80.10
2019-01-18T03:57:55.808Z,80.10
2019-01-18T04:00:27.459Z,80.09
2019-01-18T04:02:56.789Z,80.00
2019-01-18T04:05:25.941Z,79.82
2019-01-18T04:07:55.226Z,79.72
2019-01-18T04:10:24.953Z,79.73
2019-01-18T04:12:54.153Z,79.70
2019-01-18T04:15:24.414Z,79.67
2019-01-18T04:17:53.673Z,79.59
2019-01-18T04:20:23.695Z,79.51
2019-01-18T04:22:53.277Z,79.43
2019-01-18T04:25:25.885Z,79.29
2019-01-18T04:27:55.493Z,79.19
2019-01-18T04:30:33.003Z,79.25
2019-01-18T04:32:56.504Z,79.11
2019-01-18T04:35:25.716Z,78.95
2019-01-18T04:37:54.895Z,78.89
2019-01-18T04:40:25.733Z,78.88
2019-01-18T04:42:55.171Z,78.79
2019-01-18T04:45:25.202Z,78.78
2019-01-18T04:47:54.558Z,78.84
2019-01-18T04:50:25.359Z,78.92
2019-01-18T04:52:54.639Z,78.92
2019-01-18T04:55:23.884Z,78.75
2019-01-18T04:57:53.279Z,78.59
2019-01-18T05:00:30.737Z,78.62
2019-01-18T05:03:00.010Z,78.63
2019-01-18T05:05:29.217Z,78.53
2019-01-18T05:07:58.833Z,78.46
2019-01-18T05:10:29.194Z,78.54
2019-01-18T05:12:59.078Z,78.49
2019-01-18T05:15:30.382Z,78.44
2019-01-18T05:17:59.583Z,78.37
2019-01-18T05:20:29.120Z,78.26
2019-01-18T05:22:58.354Z,78.24
2019-01-18T05:25:27.574Z,78.19
2019-01-18T05:27:57.019Z,78.17
2019-01-18T05:30:28.117Z,78.18
2019-01-18T05:32:57.324Z,78.17
2019-01-18T05:35:26.867Z,78.08
2019-01-18T05:37:56.097Z,77.97
2019-01-18T05:40:25.280Z,77.98
2019-01-18T05:42:54.659Z,77.96
2019-01-18T05:45:23.990Z,77.98
2019-01-18T05:47:53.189Z,77.98
2019-01-18T05:50:25.408Z,77.89
2019-01-18T05:52:54.729Z,77.75
2019-01-18T05:55:24.468Z,77.70
2019-01-18T05:57:53.950Z,77.67
2019-01-18T06:00:55.371Z,77.73
2019-01-18T06:03:24.700Z,77.71
2019-01-18T06:05:53.913Z,77.69
2019-01-18T06:08:23.117Z,77.66
2019-01-18T06:10:52.388Z,77.55
2019-01-18T06:13:21.593Z,77.49
2019-01-18T06:15:50.842Z,77.45
2019-01-18T06:18:20.399Z,77.50
2019-01-18T06:20:49.611Z,77.41
2019-01-18T06:23:18.645Z,77.33
2019-01-18T06:25:48.086Z,77.29
2019-01-18T06:28:17.267Z,77.22
2019-01-18T06:30:46.532Z,77.22
2019-01-18T06:33:16.094Z,77.18
2019-01-18T06:35:45.283Z,77.12
2019-01-18T06:38:14.563Z,77.12
2019-01-18T06:40:44.956Z,77.06
2019-01-18T06:43:14.129Z,77.10
2019-01-18T06:45:43.363Z,76.96
2019-01-18T06:48:15.176Z,77.02
2019-01-18T06:50:44.363Z,76.93
2019-01-18T06:53:13.735Z,76.76
2019-01-18T06:55:43.164Z,76.58
2019-01-18T06:58:12.349Z,76.69
2019-01-18T07:00:41.615Z,76.80
2019-01-18T07:03:10.908Z,76.76
2019-01-18T07:05:40.110Z,76.66
2019-01-18T07:08:09.347Z,76.67
2019-01-18T07:10:39.683Z,76.66
2019-01-18T07:13:08.859Z,76.72
2019-01-18T07:15:38.119Z,76.78
2019-01-18T07:18:07.588Z,76.75
2019-01-18T07:20:36.800Z,76.76
2019-01-18T07:23:06.093Z,76.70
2019-01-18T07:25:35.488Z,76.51
2019-01-18T07:28:04.691Z,76.37
2019-01-18T07:30:36.829Z,76.36
2019-01-18T07:33:08.875Z,76.37
2019-01-18T07:35:38.186Z,76.32
2019-01-18T07:38:07.409Z,76.22
2019-01-18T07:40:36.877Z,76.10
2019-01-18T07:43:07.859Z,76.03
2019-01-18T07:45:37.093Z,75.79
2019-01-18T07:48:06.502Z,75.67
2019-01-18T07:50:35.883Z,75.66
2019-01-18T07:53:05.453Z,75.64
2019-01-18T07:55:34.737Z,75.38
2019-01-18T07:58:05.395Z,75.20
2019-01-18T08:00:34.677Z,75.23
2019-01-18T08:03:03.955Z,75.33
2019-01-18T08:05:33.719Z,75.38
2019-01-18T08:08:03.582Z,75.28
2019-01-18T08:10:32.776Z,75.33
2019-01-18T08:13:02.648Z,74.98
2019-01-18T08:15:31.900Z,74.70
2019-01-18T08:18:01.084Z,74.56
2019-01-18T08:20:31.755Z,74.30
2019-01-18T08:23:01.924Z,73.85
2019-01-18T08:25:31.120Z,74.22
2019-01-18T08:28:00.782Z,74.34
2019-01-18T08:30:30.923Z,74.21
2019-01-18T08:33:00.147Z,74.28
2019-01-18T08:35:30.519Z,74.45
2019-01-18T08:37:59.837Z,74.25
2019-01-18T08:40:31.727Z,74.33
2019-01-18T08:43:01.010Z,74.34
2019-01-18T08:45:39.460Z,73.88
2019-01-18T08:48:09.271Z,73.87
2019-01-18T08:50:38.742Z,73.49
2019-01-18T08:53:08.335Z,73.52
2019-01-18T08:55:37.621Z,73.77
2019-01-18T08:58:06.932Z,74.56
2019-01-18T09:00:36.165Z,75.25
2019-01-18T09:03:06.442Z,75.67
2019-01-18T09:05:35.728Z,75.50
2019-01-18T09:08:05.709Z,75.80
2019-01-18T09:10:35.162Z,75.57
2019-01-18T09:13:04.341Z,74.97
2019-01-18T09:15:33.621Z,75.74
2019-01-18T09:18:03.409Z,75.36
2019-01-18T09:20:32.727Z,74.43
2019-01-18T09:23:01.950Z,74.40
2019-01-18T09:25:31.781Z,72.92
2019-01-18T09:28:00.982Z,72.75
2019-01-18T09:30:33.680Z,72.37
2019-01-18T09:33:04.296Z,71.43
2019-01-18T09:35:33.640Z,71.62
2019-01-18T09:38:03.514Z,71.13
2019-01-18T09:40:33.639Z,70.59
2019-01-18T09:43:02.891Z,70.25
2019-01-18T09:45:32.328Z,69.50
2019-01-18T09:48:01.561Z,69.21
2019-01-18T09:50:32.923Z,68.84
2019-01-18T09:53:02.589Z,69.59
2019-01-18T09:55:31.975Z,68.02
2019-01-18T09:58:01.480Z,67.71
2019-01-18T10:00:33.102Z,67.78
2019-01-18T10:03:02.759Z,67.36
2019-01-18T10:05:32.921Z,68.68
2019-01-18T10:08:02.222Z,68.38
2019-01-18T10:10:31.662Z,67.36
2019-01-18T10:13:01.109Z,66.99
2019-01-18T10:15:36.534Z,67.23
2019-01-18T10:18:06.628Z,66.99
2019-01-18T10:20:35.813Z,67.11
2019-01-18T10:23:05.553Z,66.39
2019-01-18T10:25:35.026Z,66.00
2019-01-18T10:28:04.219Z,65.75
2019-01-18T10:30:33.638Z,64.21
2019-01-18T10:33:02.889Z,64.13
2019-01-18T10:35:32.078Z,63.80
2019-01-18T10:38:01.648Z,63.36
2019-01-18T10:40:30.987Z,63.53
2019-01-18T10:43:00.170Z,63.73
2019-01-18T10:45:29.466Z,63.75
2019-01-18T10:48:00.020Z,64.04
2019-01-18T10:50:31.728Z,64.12
2019-01-18T10:53:00.927Z,63.93
2019-01-18T10:55:30.240Z,64.16
2019-01-18T10:57:59.892Z,64.10
2019-01-18T11:00:32.281Z,64.14
2019-01-18T11:03:02.300Z,64.44
2019-01-18T11:05:31.494Z,64.56
2019-01-18T11:08:00.889Z,64.54
2019-01-18T11:10:32.450Z,64.42
2019-01-18T11:13:01.866Z,64.59
2019-01-18T11:15:36.016Z,64.30
2019-01-18T11:18:02.591Z,64.46
2019-01-18T11:20:59.063Z,64.44
2019-01-18T11:23:28.306Z,64.74
2019-01-18T11:25:57.507Z,64.88
2019-01-18T11:28:27.069Z,64.96
2019-01-18T11:30:56.327Z,64.91
2019-01-18T11:33:25.513Z,64.92
2019-01-18T11:35:55.067Z,65.00
2019-01-18T11:38:24.313Z,65.08
2019-01-18T11:40:53.497Z,65.05
2019-01-18T11:43:23.274Z,65.19
2019-01-18T11:45:52.486Z,65.29
2019-01-18T11:48:21.683Z,65.14
2019-01-18T11:50:51.176Z,65.10
2019-01-18T11:53:20.495Z,65.05
2019-01-18T11:55:49.688Z,65.08
2019-01-18T11:58:19.072Z,65.12
2019-01-18T12:00:48.344Z,65.09
2019-01-18T12:03:17.728Z,65.03
2019-01-18T12:05:47.181Z,65.16
2019-01-18T12:08:16.413Z,64.68
2019-01-18T12:10:45.595Z,64.64
2019-01-18T12:13:15.085Z,64.89
2019-01-18T12:15:44.505Z,64.71
2019-01-18T12:18:13.733Z,65.02
2019-01-18T12:20:44.331Z,65.17
2019-01-18T12:23:13.612Z,65.26
2019-01-18T12:25:42.839Z,65.03
2019-01-18T12:28:12.429Z,64.56
2019-01-18T12:30:41.647Z,64.67
2019-01-18T12:33:11.032Z,64.32
2019-01-18T12:35:40.528Z,64.66
2019-01-18T12:38:11.294Z,63.87
2019-01-18T12:40:40.491Z,63.94
2019-01-18T12:43:09.953Z,63.78
2019-01-18T12:45:39.213Z,63.57
2019-01-18T12:48:08.437Z,63.77
2019-01-18T12:50:39.702Z,63.33
2019-01-18T12:53:09.291Z,63.07
2019-01-18T12:55:38.702Z,62.69
2019-01-18T12:58:08.524Z,62.02
2019-01-18T13:00:38.072Z,62.02
2019-01-18T13:03:08.201Z,61.91
2019-01-18T13:05:49.219Z,61.93
2019-01-18T13:08:18.416Z,62.72
2019-01-18T13:10:47.615Z,62.99
2019-01-18T13:13:17.119Z,63.26
2019-01-18T13:16:02.411Z,63.69
2019-01-18T13:18:32.434Z,63.96
2019-01-18T13:21:01.693Z,64.13
2019-01-18T13:23:30.901Z,64.34
2019-01-18T13:26:00.219Z,64.52
2019-01-18T13:28:29.412Z,64.75
2019-01-18T13:30:58.733Z,64.92
2019-01-18T13:33:28.052Z,65.06
2019-01-18T13:35:57.249Z,65.23
2019-01-18T13:38:26.466Z,65.43
2019-01-18T13:40:55.915Z,65.55
2019-01-18T13:43:25.101Z,65.69
2019-01-18T13:45:54.535Z,65.84
2019-01-18T13:48:24.003Z,65.99
2019-01-18T13:50:53.221Z,66.05
2019-01-18T13:53:22.834Z,66.17
2019-01-18T13:55:52.136Z,66.25
2019-01-18T13:58:21.343Z,66.35
2019-01-18T14:00:50.570Z,66.45
2019-01-18T14:03:20.016Z,66.60
2019-01-18T14:05:49.211Z,66.63
2019-01-18T14:08:18.913Z,66.78
2019-01-18T14:10:48.246Z,66.89
2019-01-18T14:13:17.481Z,67.01
2019-01-18T14:15:46.684Z,67.09
2019-01-18T14:18:16.119Z,67.22
2019-01-18T14:20:45.352Z,67.31
2019-01-18T14:23:14.583Z,67.45
2019-01-18T14:25:44.022Z,67.61
2019-01-18T14:28:13.217Z,67.78
2019-01-18T14:30:42.398Z,67.93
2019-01-18T14:33:11.923Z,67.99
2019-01-18T14:35:41.107Z,68.36
2019-01-18T14:38:10.319Z,68.44
2019-01-18T14:40:39.679Z,68.44
2019-01-18T14:43:08.882Z,68.56
2019-01-18T14:45:40.769Z,68.64
2019-01-18T14:48:10.015Z,68.98
2019-01-18T14:50:39.208Z,68.94
2019-01-18T14:53:08.483Z,68.91
2019-01-18T14:55:37.893Z,69.19
2019-01-18T14:58:10.547Z,69.18
2019-01-18T15:00:40.283Z,69.22
2019-01-18T15:03:09.548Z,69.46
2019-01-18T15:05:38.959Z,69.35
2019-01-18T15:08:08.673Z,69.47
2019-01-18T15:10:38.347Z,69.69
2019-01-18T15:13:10.658Z,69.71
2019-01-18T15:15:39.852Z,69.79
2019-01-18T15:18:09.104Z,69.86
2019-01-18T15:20:38.388Z,69.80
2019-01-18T15:23:07.916Z,69.92
2019-01-18T15:25:37.129Z,70.08
2019-01-18T15:28:06.556Z,70.02
2019-01-18T15:30:35.854Z,70.17
2019-01-18T15:33:09.262Z,70.28
2019-01-18T15:35:40.206Z,70.44
2019-01-18T15:38:11.368Z,70.38
2019-01-18T15:40:44.578Z,70.27
2019-01-18T15:43:15.658Z,70.30
2019-01-18T15:45:45.056Z,70.33
2019-01-18T15:48:14.243Z,70.36
2019-01-18T15:50:43.559Z,70.34
2019-01-18T15:53:12.831Z,70.41
2019-01-18T15:55:42.535Z,70.28
2019-01-18T15:58:11.823Z,70.40
2019-01-18T16:00:45.366Z,70.43
2019-01-18T16:03:16.103Z,70.41
2019-01-18T16:05:45.651Z,70.45
2019-01-18T16:08:15.002Z,70.60
2019-01-18T16:10:44.207Z,70.63
2019-01-18T16:13:14.001Z,70.59
2019-01-18T16:15:58.921Z,70.67
2019-01-18T16:18:28.260Z,70.84
2019-01-18T16:20:57.832Z,71.01
2019-01-18T16:23:27.427Z,70.97
2019-01-18T16:25:56.700Z,71.14
2019-01-18T16:28:25.961Z,71.05
2019-01-18T16:30:55.247Z,71.18
2019-01-18T16:33:24.522Z,71.23
2019-01-18T16:35:53.705Z,71.43
2019-01-18T16:38:23.032Z,71.72
2019-01-18T16:40:52.316Z,71.60
2019-01-18T16:43:28.344Z,71.66
2019-01-18T16:45:59.128Z,71.79
2019-01-18T16:48:28.309Z,71.92
2019-01-18T16:50:57.612Z,72.07
2019-01-18T16:53:26.886Z,72.05
2019-01-18T16:55:56.083Z,72.18
2019-01-18T16:58:25.496Z,72.18
2019-01-18T17:00:56.260Z,72.27
2019-01-18T17:03:30.366Z,72.44
2019-01-18T17:05:56.450Z,72.33
2019-01-18T17:08:25.705Z,72.37
2019-01-18T17:10:54.957Z,72.47
2019-01-18T17:13:24.758Z,72.60
2019-01-18T17:15:54.146Z,72.78
2019-01-18T17:18:24.970Z,73.02
2019-01-18T17:20:54.366Z,72.97
2019-01-18T17:23:23.591Z,73.00
2019-01-18T17:25:52.804Z,73.08
2019-01-18T17:28:22.295Z,73.11
2019-01-18T17:30:51.532Z,73.18
2019-01-18T17:33:20.740Z,73.21
2019-01-18T17:36:16.459Z,73.19
2019-01-18T17:39:23.276Z,73.37
2019-01-18T17:42:49.220Z,73.23
2019-01-18T17:45:47.856Z,73.51
2019-01-18T17:48:54.085Z,73.33
2019-01-18T17:52:13.725Z,73.54
2019-01-18T17:54:59.740Z,73.55
2019-01-18T17:58:11.442Z,74.15
2019-01-18T18:01:23.652Z,74.07
2019-01-18T18:04:42.963Z,74.19
2019-01-18T18:07:27.483Z,74.06
2019-01-18T18:10:39.186Z,74.44
2019-01-18T18:14:09.908Z,74.48
2019-01-18T18:17:35.400Z,74.58
2019-01-18T18:20:45.889Z,74.72
2019-01-18T18:23:59.199Z,74.75
2019-01-18T18:27:04.360Z,74.86
2019-01-18T18:30:22.224Z,74.93
2019-01-18T18:33:50.398Z,74.73
2019-01-18T18:36:39.662Z,74.71
2019-01-18T18:39:49.649Z,74.70
2019-01-18T18:42:54.240Z,74.84
2019-01-18T18:46:10.835Z,74.77
2019-01-18T18:49:08.068Z,74.74
2019-01-18T18:51:53.975Z,74.84
2019-01-18T18:55:12.456Z,74.93
2019-01-18T18:58:14.206Z,75.00
2019-01-18T19:01:22.529Z,74.92
2019-01-18T19:04:38.831Z,75.14
2019-01-18T19:07:56.354Z,75.38
2019-01-18T19:11:10.184Z,75.53
2019-01-18T19:14:13.818Z,75.65
2019-01-18T19:17:30.603Z,75.48
2019-01-18T19:20:35.873Z,75.66
2019-01-18T19:23:40.167Z,75.53
2019-01-18T19:26:49.680Z,75.37
2019-01-18T19:30:00.951Z,75.44
2019-01-18T19:33:38.444Z,75.47
2019-01-18T19:36:34.798Z,75.37
2019-01-18T19:39:56.823Z,75.40
2019-01-18T19:42:59.246Z,75.25
2019-01-18T19:46:05.421Z,75.39
2019-01-18T19:49:09.105Z,75.55
2019-01-18T19:51:59.369Z,75.55
2019-01-18T19:55:03.107Z,75.55
2019-01-18T19:58:13.369Z,75.70
2019-01-18T20:01:11.858Z,75.35
2019-01-18T20:04:26.955Z,75.49
2019-01-18T20:07:36.212Z,75.45
2019-01-18T20:10:34.881Z,75.39
2019-01-18T20:13:32.990Z,75.33
2019-01-18T20:16:31.375Z,75.54
2019-01-18T20:19:31.835Z,75.66
2019-01-18T20:22:45.387Z,75.62
2019-01-18T20:25:45.905Z,75.54
2019-01-18T20:29:05.227Z,75.45
2019-01-18T20:32:04.302Z,75.48
2019-01-18T20:35:16.330Z,75.59
2019-01-18T20:38:38.825Z,75.61
2019-01-18T20:41:24.567Z,75.50
2019-01-18T20:44:20.843Z,75.57
2019-01-18T20:47:14.132Z,75.57
2019-01-18T20:50:33.673Z,75.63
2019-01-18T20:53:27.386Z,75.53
2019-01-18T20:56:17.340Z,75.43
2019-01-18T20:59:06.832Z,75.44
2019-01-18T21:02:16.359Z,75.48
2019-01-18T21:05:13.962Z,75.42
2019-01-18T21:08:08.202Z,75.47
2019-01-18T21:11:08.261Z,75.54
2019-01-18T21:14:06.191Z,75.46
2019-01-18T21:17:19.957Z,75.44
2019-01-18T21:20:28.157Z,75.39
2019-01-18T21:23:35.480Z,75.18
2019-01-18T21:26:39.547Z,75.28
2019-01-18T21:29:42.701Z,75.28
2019-01-18T21:32:47.141Z,75.32
2019-01-18T21:35:40.535Z,75.51
2019-01-18T21:38:54.867Z,75.44
2019-01-18T21:41:55.411Z,75.44
2019-01-18T21:45:01.426Z,75.54
2019-01-18T21:48:12.887Z,75.58
2019-01-18T21:51:21.918Z,75.56
2019-01-18T21:54:16.869Z,75.71
2019-01-18T21:57:39.215Z,75.70
2019-01-18T22:00:42.822Z,75.64
2019-01-18T22:03:23.395Z,75.62
2019-01-18T22:06:25.551Z,75.50
2019-01-18T22:09:21.593Z,75.60
2019-01-18T22:12:16.938Z,75.43
2019-01-18T22:15:25.567Z,75.44
2019-01-18T22:18:30.087Z,75.38
2019-01-18T22:21:40.743Z,75.29
2019-01-18T22:24:47.526Z,75.26
2019-01-18T22:27:47.705Z,75.29
2019-01-18T22:30:42.575Z,75.14
2019-01-18T22:33:29.959Z,75.16
2019-01-18T22:36:35.246Z,75.10
2019-01-18T22:39:18.382Z,75.11
2019-01-18T22:42:30.757Z,75.06
2019-01-18T22:45:13.183Z,75.08
2019-01-18T22:48:06.822Z,74.90
2019-01-18T22:51:07.756Z,74.89
2019-01-18T22:54:19.772Z,74.84
2019-01-18T22:57:27.201Z,74.83
2019-01-18T23:00:43.130Z,74.88
2019-01-18T23:04:00.990Z,74.90
2019-01-18T23:07:03.190Z,74.86
2019-01-18T23:10:05.487Z,74.87
2019-01-18T23:12:51.846Z,74.75
2019-01-18T23:16:05.622Z,74.79
2019-01-18T23:19:06.384Z,74.83
2019-01-18T23:22:29.577Z,74.79
2019-01-18T23:25:08.803Z,74.79
2019-01-18T23:28:18.163Z,74.67
2019-01-18T23:31:00.057Z,74.61
2019-01-18T23:33:47.891Z,74.54
2019-01-18T23:36:39.102Z,74.60
2019-01-18T23:39:34.906Z,74.56
2019-01-18T23:42:52.289Z,74.58
2019-01-18T23:45:41.908Z,74.62
2019-01-18T23:48:50.444Z,74.51
2019-01-18T23:52:01.340Z,74.51
2019-01-18T23:55:07.217Z,74.35
2019-01-18T23:58:12.096Z,74.51
